Newburg Corners, Wisconsin
Current Conditions -  °F | °C
As of 8:53 PM on Thursday 27 Nov 2014 (Local Time) from KLSE Reporting Station
Clear Clear  
Wind Chill:   Ceiling: Unl
Heat Index: 12°   Visibility: 10mi
Dew Point:   Wind: 6mph
Humidity: 64%   Direction: 170°S
Pressure: 30.38"   Gusts: NA
Location:  43.8385°N, 90.9811°W
Report Text: KLSE 280253Z AUTO 17005KT 10SM CLR M11/M17 A3038 RMK AO2 SLP313 T11111167 58013
Loading
Personal Weather Stations






























Interactive Weather Map New forecast layout! Learn more

10-Day Weather Forecast

Advertisements
Track Severe Weather on mobile